sensor_id;sensor_type;location;lat;lon;timestamp;temperature;humidity
30336;DHT22;17142;47.990;7.846;2023-12-20T05:41:42;6.20;99.90
30336;DHT22;17142;47.990;7.846;2023-12-20T05:44:10;6.20;99.90
30336;DHT22;17142;47.990;7.846;2023-12-20T05:46:37;6.20;99.90
30336;DHT22;17142;47.990;7.846;2023-12-20T05:49:03;6.20;99.90
30336;DHT22;17142;47.990;7.846;2023-12-20T05:51:29;6.20;99.90
30336;DHT22;17142;47.990;7.846;2023-12-20T05:53:54;6.20;99.90
30336;DHT22;17142;47.990;7.846;2023-12-20T05:56:22;6.20;99.90
30336;DHT22;17142;47.990;7.846;2023-12-20T05:58:48;6.20;99.90
30336;DHT22;17142;47.990;7.846;2023-12-20T06:01:17;6.20;99.90
30336;DHT22;17142;47.990;7.846;2023-12-20T06:03:43;6.20;99.90
30336;DHT22;17142;47.990;7.846;2023-12-20T06:06:10;6.20;99.90
30336;DHT22;17142;47.990;7.846;2023-12-20T06:08:36;6.20;99.90
30336;DHT22;17142;47.990;7.846;2023-12-20T06:11:01;6.20;99.90
30336;DHT22;17142;47.990;7.846;2023-12-20T06:13:27;6.20;99.90
30336;DHT22;17142;47.990;7.846;2023-12-20T06:15:54;6.20;99.90
30336;DHT22;17142;47.990;7.846;2023-12-20T06:18:21;6.20;99.90
30336;DHT22;17142;47.990;7.846;2023-12-20T06:20:46;6.20;99.90
30336;DHT22;17142;47.990;7.846;2023-12-20T06:23:12;6.20;99.90
30336;DHT22;17142;47.990;7.846;2023-12-20T06:25:40;6.20;99.90
30336;DHT22;17142;47.990;7.846;2023-12-20T06:28:08;6.20;99.90
30336;DHT22;17142;47.990;7.846;2023-12-20T06:30:38;6.30;99.90
30336;DHT22;17142;47.990;7.846;2023-12-20T06:33:03;6.30;99.90
30336;DHT22;17142;47.990;7.846;2023-12-20T06:35:31;6.30;99.90
30336;DHT22;17142;47.990;7.846;2023-12-20T06:37:57;6.30;99.90
30336;DHT22;17142;47.990;7.846;2023-12-20T06:40:25;6.30;99.90
30336;DHT22;17142;47.990;7.846;2023-12-20T06:42:50;6.30;99.90
30336;DHT22;17142;47.990;7.846;2023-12-20T06:45:16;6.30;99.90
30336;DHT22;17142;47.990;7.846;2023-12-20T06:47:42;6.30;99.90
30336;DHT22;17142;47.990;7.846;2023-12-20T06:50:09;6.40;99.90
30336;DHT22;17142;47.990;7.846;2023-12-20T06:52:35;6.40;99.90
30336;DHT22;17142;47.990;7.846;2023-12-20T06:55:01;6.40;99.90
30336;DHT22;17142;47.990;7.846;2023-12-20T06:57:26;6.30;99.90
30336;DHT22;17142;47.990;7.846;2023-12-20T06:59:53;6.30;99.90
30336;DHT22;17142;47.990;7.846;2023-12-20T07:02:18;6.30;99.90
30336;DHT22;17142;47.990;7.846;2023-12-20T07:04:47;6.30;99.90
30336;DHT22;17142;47.990;7.846;2023-12-20T07:07:13;6.30;99.90
30336;DHT22;17142;47.990;7.846;2023-12-20T07:09:39;6.30;99.90
30336;DHT22;17142;47.990;7.846;2023-12-20T07:12:06;6.30;99.90
30336;DHT22;17142;47.990;7.846;2023-12-20T07:14:32;6.30;99.90
30336;DHT22;17142;47.990;7.846;2023-12-20T07:16:57;6.30;99.90
30336;DHT22;17142;47.990;7.846;2023-12-20T07:19:23;6.30;99.90
30336;DHT22;17142;47.990;7.846;2023-12-20T07:21:49;6.30;99.90
30336;DHT22;17142;47.990;7.846;2023-12-20T07:24:14;6.20;99.90
30336;DHT22;17142;47.990;7.846;2023-12-20T07:26:40;6.20;99.90
30336;DHT22;17142;47.990;7.846;2023-12-20T07:29:05;6.30;99.90
30336;DHT22;17142;47.990;7.846;2023-12-20T07:31:32;6.30;99.90
30336;DHT22;17142;47.990;7.846;2023-12-20T07:33:58;6.40;99.90
30336;DHT22;17142;47.990;7.846;2023-12-20T07:36:26;6.40;99.90
30336;DHT22;17142;47.990;7.846;2023-12-20T07:38:51;6.30;99.90
30336;DHT22;17142;47.990;7.846;2023-12-20T07:41:17;6.30;99.90
30336;DHT22;17142;47.990;7.846;2023-12-20T07:43:42;6.30;99.90
30336;DHT22;17142;47.990;7.846;2023-12-20T07:46:09;6.30;99.90
30336;DHT22;17142;47.990;7.846;2023-12-20T07:48:35;6.30;99.90
30336;DHT22;17142;47.990;7.846;2023-12-20T07:51:01;6.30;99.90
30336;DHT22;17142;47.990;7.846;2023-12-20T07:53:32;6.30;99.90
30336;DHT22;17142;47.990;7.846;2023-12-20T07:55:57;6.30;99.90
30336;DHT22;17142;47.990;7.846;2023-12-20T07:58:25;6.30;99.90
30336;DHT22;17142;47.990;7.846;2023-12-20T08:00:51;6.30;99.90
30336;DHT22;17142;47.990;7.846;2023-12-20T08:03:19;6.30;99.90
30336;DHT22;17142;47.990;7.846;2023-12-20T08:05:45;6.30;99.90
30336;DHT22;17142;47.990;7.846;2023-12-20T08:08:10;6.30;99.90
30336;DHT22;17142;47.990;7.846;2023-12-20T08:10:38;6.40;99.90
30336;DHT22;17142;47.990;7.846;2023-12-20T08:13:08;6.40;99.90
30336;DHT22;17142;47.990;7.846;2023-12-20T08:15:34;6.40;99.90
30336;DHT22;17142;47.990;7.846;2023-12-20T08:17:59;6.40;99.90
30336;DHT22;17142;47.990;7.846;2023-12-20T08:20:25;6.30;99.90
30336;DHT22;17142;47.990;7.846;2023-12-20T08:22:51;6.40;99.90
30336;DHT22;17142;47.990;7.846;2023-12-20T08:25:16;6.40;99.90
30336;DHT22;17142;47.990;7.846;2023-12-20T08:27:44;6.40;99.90
30336;DHT22;17142;47.990;7.846;2023-12-20T08:30:12;6.50;99.90
30336;DHT22;17142;47.990;7.846;2023-12-20T08:32:38;6.50;99.90
30336;DHT22;17142;47.990;7.846;2023-12-20T08:35:04;6.50;99.90
30336;DHT22;17142;47.990;7.846;2023-12-20T08:37:31;6.50;99.90
30336;DHT22;17142;47.990;7.846;2023-12-20T08:39:57;6.50;99.90
30336;DHT22;17142;47.990;7.846;2023-12-20T08:42:25;6.60;99.90
30336;DHT22;17142;47.990;7.846;2023-12-20T08:44:56;6.60;99.90
30336;DHT22;17142;47.990;7.846;2023-12-20T08:47:23;6.60;99.90
30336;DHT22;17142;47.990;7.846;2023-12-20T08:49:48;6.60;99.90
30336;DHT22;17142;47.990;7.846;2023-12-20T08:52:14;6.60;99.90
30336;DHT22;17142;47.990;7.846;2023-12-20T08:54:42;6.70;99.90
30336;DHT22;17142;47.990;7.846;2023-12-20T08:57:08;6.80;99.90
30336;DHT22;17142;47.990;7.846;2023-12-20T08:59:35;6.80;99.90
30336;DHT22;17142;47.990;7.846;2023-12-20T09:02:01;6.80;99.90
30336;DHT22;17142;47.990;7.846;2023-12-20T09:04:29;6.90;99.90
30336;DHT22;17142;47.990;7.846;2023-12-20T09:06:55;6.90;99.90
30336;DHT22;17142;47.990;7.846;2023-12-20T09:09:23;6.90;99.90
30336;DHT22;17142;47.990;7.846;2023-12-20T09:11:48;6.90;99.90
30336;DHT22;17142;47.990;7.846;2023-12-20T09:14:16;6.90;99.90
30336;DHT22;17142;47.990;7.846;2023-12-20T09:16:42;7.00;99.90
30336;DHT22;17142;47.990;7.846;2023-12-20T09:19:10;7.00;99.90
30336;DHT22;17142;47.990;7.846;2023-12-20T09:21:38;7.00;99.90
30336;DHT22;17142;47.990;7.846;2023-12-20T09:24:06;7.00;99.90
30336;DHT22;17142;47.990;7.846;2023-12-20T09:26:32;7.00;99.90
30336;DHT22;17142;47.990;7.846;2023-12-20T09:28:57;7.00;99.90
30336;DHT22;17142;47.990;7.846;2023-12-20T09:31:23;7.00;99.90
30336;DHT22;17142;47.990;7.846;2023-12-20T09:33:51;6.90;99.90
30336;DHT22;17142;47.990;7.846;2023-12-20T09:36:16;6.80;99.90
30336;DHT22;17142;47.990;7.846;2023-12-20T09:38:44;6.80;99.90
30336;DHT22;17142;47.990;7.846;2023-12-20T09:41:12;6.80;99.90
30336;DHT22;17142;47.990;7.846;2023-12-20T09:43:38;6.70;99.90
30336;DHT22;17142;47.990;7.846;2023-12-20T09:46:06;6.70;99.90
30336;DHT22;17142;47.990;7.846;2023-12-20T09:48:36;6.70;99.90
30336;DHT22;17142;47.990;7.846;2023-12-20T09:51:02;6.70;99.90
30336;DHT22;17142;47.990;7.846;2023-12-20T09:53:29;6.80;99.90
30336;DHT22;17142;47.990;7.846;2023-12-20T09:55:59;6.80;99.90
30336;DHT22;17142;47.990;7.846;2023-12-20T09:58:25;6.80;99.90
30336;DHT22;17142;47.990;7.846;2023-12-20T10:00:55;6.90;99.90
30336;DHT22;17142;47.990;7.846;2023-12-20T10:03:27;6.90;99.90
30336;DHT22;17142;47.990;7.846;2023-12-20T10:05:57;6.90;99.90
30336;DHT22;17142;47.990;7.846;2023-12-20T10:08:25;6.90;99.90
30336;DHT22;17142;47.990;7.846;2023-12-20T10:10:51;6.80;99.90
30336;DHT22;17142;47.990;7.846;2023-12-20T10:13:17;6.70;99.90
30336;DHT22;17142;47.990;7.846;2023-12-20T10:15:43;6.80;99.90
30336;DHT22;17142;47.990;7.846;2023-12-20T10:18:09;6.80;99.90
30336;DHT22;17142;47.990;7.846;2023-12-20T10:20:34;6.80;99.90
30336;DHT22;17142;47.990;7.846;2023-12-20T10:39:52;6.70;99.90
30336;DHT22;17142;47.990;7.846;2023-12-20T10:55:49;6.80;99.90
30336;DHT22;17142;47.990;7.846;2023-12-20T10:58:19;6.80;99.90
30336;DHT22;17142;47.990;7.846;2023-12-20T11:00:54;6.80;99.90
30336;DHT22;17142;47.990;7.846;2023-12-20T11:03:22;6.90;99.90
30336;DHT22;17142;47.990;7.846;2023-12-20T11:08:38;7.10;99.90
30336;DHT22;17142;47.990;7.846;2023-12-20T11:13:41;7.00;99.90
30336;DHT22;17142;47.990;7.846;2023-12-20T11:16:09;7.00;99.90
30336;DHT22;17142;47.990;7.846;2023-12-20T11:18:35;7.00;99.90
30336;DHT22;17142;47.990;7.846;2023-12-20T11:21:02;6.90;99.90
30336;DHT22;17142;47.990;7.846;2023-12-20T11:23:30;6.90;99.90
30336;DHT22;17142;47.990;7.846;2023-12-20T11:25:56;6.90;99.90
30336;DHT22;17142;47.990;7.846;2023-12-20T11:28:26;6.90;99.90
30336;DHT22;17142;47.990;7.846;2023-12-20T11:30:52;6.80;99.90
30336;DHT22;17142;47.990;7.846;2023-12-20T11:33:29;6.90;99.90
30336;DHT22;17142;47.990;7.846;2023-12-20T11:35:59;7.00;99.90
30336;DHT22;17142;47.990;7.846;2023-12-20T11:38:36;7.10;99.90
30336;DHT22;17142;47.990;7.846;2023-12-20T11:41:07;7.20;99.90
30336;DHT22;17142;47.990;7.846;2023-12-20T11:43:37;7.20;99.90
30336;DHT22;17142;47.990;7.846;2023-12-20T11:46:07;7.30;99.90
30336;DHT22;17142;47.990;7.846;2023-12-20T11:48:38;7.40;99.90
30336;DHT22;17142;47.990;7.846;2023-12-20T11:51:12;7.40;99.90
30336;DHT22;17142;47.990;7.846;2023-12-20T11:53:39;7.40;99.90
30336;DHT22;17142;47.990;7.846;2023-12-20T11:56:07;7.30;99.90
30336;DHT22;17142;47.990;7.846;2023-12-20T11:58:33;7.40;99.90
30336;DHT22;17142;47.990;7.846;2023-12-20T12:00:59;7.30;99.90
30336;DHT22;17142;47.990;7.846;2023-12-20T12:03:25;7.20;99.90
30336;DHT22;17142;47.990;7.846;2023-12-20T12:05:51;7.10;99.90
30336;DHT22;17142;47.990;7.846;2023-12-20T12:08:17;7.00;99.90
30336;DHT22;17142;47.990;7.846;2023-12-20T12:10:44;7.10;99.90
30336;DHT22;17142;47.990;7.846;2023-12-20T12:13:09;7.30;99.90
30336;DHT22;17142;47.990;7.846;2023-12-20T12:15:38;7.30;99.90
30336;DHT22;17142;47.990;7.846;2023-12-20T12:18:07;7.30;99.90
30336;DHT22;17142;47.990;7.846;2023-12-20T12:20:33;7.40;99.90
30336;DHT22;17142;47.990;7.846;2023-12-20T12:23:00;7.50;99.90
30336;DHT22;17142;47.990;7.846;2023-12-20T12:25:32;7.50;99.90
30336;DHT22;17142;47.990;7.846;2023-12-20T12:27:58;7.50;99.90
30336;DHT22;17142;47.990;7.846;2023-12-20T12:30:24;7.50;99.90
30336;DHT22;17142;47.990;7.846;2023-12-20T12:32:53;7.50;99.90
30336;DHT22;17142;47.990;7.846;2023-12-20T12:35:19;7.60;99.90
30336;DHT22;17142;47.990;7.846;2023-12-20T12:37:47;7.70;99.90
30336;DHT22;17142;47.990;7.846;2023-12-20T12:40:17;7.90;99.90
30336;DHT22;17142;47.990;7.846;2023-12-20T12:42:45;7.80;99.90
30336;DHT22;17142;47.990;7.846;2023-12-20T12:45:12;7.90;99.90
30336;DHT22;17142;47.990;7.846;2023-12-20T12:47:38;7.90;99.90
30336;DHT22;17142;47.990;7.846;2023-12-20T12:50:04;7.90;99.90
30336;DHT22;17142;47.990;7.846;2023-12-20T12:52:30;7.90;99.90
30336;DHT22;17142;47.990;7.846;2023-12-20T12:54:56;7.80;99.90
30336;DHT22;17142;47.990;7.846;2023-12-20T12:57:22;7.90;99.90
30336;DHT22;17142;47.990;7.846;2023-12-20T12:59:48;7.90;99.90
30336;DHT22;17142;47.990;7.846;2023-12-20T13:02:16;7.80;99.90
30336;DHT22;17142;47.990;7.846;2023-12-20T13:04:42;7.70;99.90
30336;DHT22;17142;47.990;7.846;2023-12-20T13:07:09;7.70;99.90
30336;DHT22;17142;47.990;7.846;2023-12-20T13:09:38;7.70;99.90
30336;DHT22;17142;47.990;7.846;2023-12-20T13:12:05;7.60;99.90
30336;DHT22;17142;47.990;7.846;2023-12-20T13:14:33;7.60;99.90
30336;DHT22;17142;47.990;7.846;2023-12-20T13:17:00;7.50;99.90
30336;DHT22;17142;47.990;7.846;2023-12-20T13:19:26;7.50;99.90
30336;DHT22;17142;47.990;7.846;2023-12-20T13:21:51;7.50;99.90
30336;DHT22;17142;47.990;7.846;2023-12-20T13:24:17;7.50;99.90
30336;DHT22;17142;47.990;7.846;2023-12-20T13:26:45;7.60;99.90
30336;DHT22;17142;47.990;7.846;2023-12-20T13:29:10;7.50;99.90
30336;DHT22;17142;47.990;7.846;2023-12-20T13:31:37;7.50;99.90
30336;DHT22;17142;47.990;7.846;2023-12-20T13:34:03;7.50;99.90
30336;DHT22;17142;47.990;7.846;2023-12-20T13:36:29;7.50;99.90
30336;DHT22;17142;47.990;7.846;2023-12-20T13:38:55;7.50;99.90
30336;DHT22;17142;47.990;7.846;2023-12-20T13:41:21;7.50;99.90
30336;DHT22;17142;47.990;7.846;2023-12-20T13:43:46;7.50;99.90
30336;DHT22;17142;47.990;7.846;2023-12-20T13:46:14;7.50;99.90
30336;DHT22;17142;47.990;7.846;2023-12-20T13:48:42;7.50;99.90
30336;DHT22;17142;47.990;7.846;2023-12-20T13:51:08;7.50;99.90
30336;DHT22;17142;47.990;7.846;2023-12-20T13:53:34;7.50;99.90
30336;DHT22;17142;47.990;7.846;2023-12-20T13:55:59;7.60;99.90
30336;DHT22;17142;47.990;7.846;2023-12-20T13:58:26;7.60;99.90
30336;DHT22;17142;47.990;7.846;2023-12-20T14:00:51;7.60;99.90
30336;DHT22;17142;47.990;7.846;2023-12-20T14:03:17;7.60;99.90
30336;DHT22;17142;47.990;7.846;2023-12-20T14:05:42;7.70;99.90
30336;DHT22;17142;47.990;7.846;2023-12-20T14:08:08;7.60;99.90
30336;DHT22;17142;47.990;7.846;2023-12-20T14:10:35;7.60;99.90
30336;DHT22;17142;47.990;7.846;2023-12-20T14:13:01;7.60;99.90
30336;DHT22;17142;47.990;7.846;2023-12-20T14:15:26;7.50;99.90
30336;DHT22;17142;47.990;7.846;2023-12-20T14:17:56;7.50;99.90
30336;DHT22;17142;47.990;7.846;2023-12-20T14:20:24;7.40;99.90
30336;DHT22;17142;47.990;7.846;2023-12-20T14:22:50;7.30;99.90
30336;DHT22;17142;47.990;7.846;2023-12-20T14:25:16;7.30;99.90
30336;DHT22;17142;47.990;7.846;2023-12-20T14:27:44;7.30;99.90
30336;DHT22;17142;47.990;7.846;2023-12-20T14:30:12;7.20;99.90
30336;DHT22;17142;47.990;7.846;2023-12-20T14:32:39;7.20;99.90
30336;DHT22;17142;47.990;7.846;2023-12-20T14:35:08;7.10;99.90
30336;DHT22;17142;47.990;7.846;2023-12-20T14:37:35;7.10;99.90
30336;DHT22;17142;47.990;7.846;2023-12-20T14:40:02;7.10;99.90
30336;DHT22;17142;47.990;7.846;2023-12-20T14:42:30;7.00;99.90
30336;DHT22;17142;47.990;7.846;2023-12-20T14:44:57;7.00;99.90
30336;DHT22;17142;47.990;7.846;2023-12-20T14:47:23;7.00;99.90
30336;DHT22;17142;47.990;7.846;2023-12-20T14:49:52;7.00;99.90
30336;DHT22;17142;47.990;7.846;2023-12-20T14:52:18;7.00;99.90
30336;DHT22;17142;47.990;7.846;2023-12-20T14:54:44;7.00;99.90
30336;DHT22;17142;47.990;7.846;2023-12-20T14:57:10;7.00;99.90
30336;DHT22;17142;47.990;7.846;2023-12-20T14:59:36;6.90;99.90
30336;DHT22;17142;47.990;7.846;2023-12-20T15:02:01;6.90;99.90
30336;DHT22;17142;47.990;7.846;2023-12-20T15:04:31;6.90;99.90
30336;DHT22;17142;47.990;7.846;2023-12-20T15:06:57;6.80;99.90
30336;DHT22;17142;47.990;7.846;2023-12-20T15:09:25;6.80;99.90
30336;DHT22;17142;47.990;7.846;2023-12-20T15:11:50;6.70;99.90
30336;DHT22;17142;47.990;7.846;2023-12-20T15:14:18;6.70;99.90
30336;DHT22;17142;47.990;7.846;2023-12-20T15:16:48;6.70;99.90
30336;DHT22;17142;47.990;7.846;2023-12-20T15:19:14;6.70;99.90
30336;DHT22;17142;47.990;7.846;2023-12-20T15:21:40;6.70;99.90
30336;DHT22;17142;47.990;7.846;2023-12-20T15:24:10;6.60;99.90
30336;DHT22;17142;47.990;7.846;2023-12-20T15:26:41;6.50;99.90
30336;DHT22;17142;47.990;7.846;2023-12-20T15:29:08;6.40;99.90
30336;DHT22;17142;47.990;7.846;2023-12-20T15:31:35;6.30;99.90
30336;DHT22;17142;47.990;7.846;2023-12-20T15:34:02;6.30;99.90
30336;DHT22;17142;47.990;7.846;2023-12-20T15:36:27;6.20;99.90
30336;DHT22;17142;47.990;7.846;2023-12-20T15:38:53;6.20;99.90
30336;DHT22;17142;47.990;7.846;2023-12-20T15:41:19;6.10;99.90
30336;DHT22;17142;47.990;7.846;2023-12-20T15:43:49;6.10;99.90
30336;DHT22;17142;47.990;7.846;2023-12-20T15:46:14;6.00;99.90
30336;DHT22;17142;47.990;7.846;2023-12-20T15:48:43;5.90;99.90
30336;DHT22;17142;47.990;7.846;2023-12-20T15:51:09;5.90;99.90
30336;DHT22;17142;47.990;7.846;2023-12-20T15:53:38;5.90;99.90
30336;DHT22;17142;47.990;7.846;2023-12-20T15:56:04;5.90;99.90
30336;DHT22;17142;47.990;7.846;2023-12-20T15:58:30;5.80;99.90
30336;DHT22;17142;47.990;7.846;2023-12-20T16:00:58;5.80;99.90
30336;DHT22;17142;47.990;7.846;2023-12-20T16:03:24;5.80;99.90
30336;DHT22;17142;47.990;7.846;2023-12-20T16:05:50;5.70;99.90
30336;DHT22;17142;47.990;7.846;2023-12-20T16:08:18;5.70;99.90
30336;DHT22;17142;47.990;7.846;2023-12-20T16:10:43;5.60;99.90
30336;DHT22;17142;47.990;7.846;2023-12-20T16:13:11;5.70;99.90
30336;DHT22;17142;47.990;7.846;2023-12-20T16:15:37;5.60;99.90
30336;DHT22;17142;47.990;7.846;2023-12-20T16:18:02;5.60;99.90
30336;DHT22;17142;47.990;7.846;2023-12-20T16:20:32;5.60;99.90
30336;DHT22;17142;47.990;7.846;2023-12-20T16:22:59;5.60;99.90
30336;DHT22;17142;47.990;7.846;2023-12-20T16:25:25;5.60;99.90
30336;DHT22;17142;47.990;7.846;2023-12-20T16:27:53;5.60;99.90
30336;DHT22;17142;47.990;7.846;2023-12-20T16:30:21;5.70;99.90
30336;DHT22;17142;47.990;7.846;2023-12-20T16:32:49;5.70;99.90
30336;DHT22;17142;47.990;7.846;2023-12-20T16:35:17;5.70;99.90
30336;DHT22;17142;47.990;7.846;2023-12-20T16:37:42;5.70;99.90
30336;DHT22;17142;47.990;7.846;2023-12-20T16:40:08;5.70;99.90
30336;DHT22;17142;47.990;7.846;2023-12-20T16:42:34;5.70;99.90
30336;DHT22;17142;47.990;7.846;2023-12-20T16:45:02;5.60;99.90
30336;DHT22;17142;47.990;7.846;2023-12-20T16:47:30;5.60;99.90
30336;DHT22;17142;47.990;7.846;2023-12-20T16:49:55;5.60;99.90
30336;DHT22;17142;47.990;7.846;2023-12-20T16:52:21;5.60;99.90
30336;DHT22;17142;47.990;7.846;2023-12-20T16:54:47;5.50;99.90
30336;DHT22;17142;47.990;7.846;2023-12-20T16:57:15;5.50;99.90
30336;DHT22;17142;47.990;7.846;2023-12-20T16:59:45;5.50;99.90
30336;DHT22;17142;47.990;7.846;2023-12-20T17:02:13;5.50;99.90
30336;DHT22;17142;47.990;7.846;2023-12-20T17:04:39;5.50;99.90
30336;DHT22;17142;47.990;7.846;2023-12-20T17:07:04;5.50;99.90
30336;DHT22;17142;47.990;7.846;2023-12-20T17:09:31;5.50;99.90
30336;DHT22;17142;47.990;7.846;2023-12-20T17:11:59;5.50;99.90
30336;DHT22;17142;47.990;7.846;2023-12-20T17:14:25;5.50;99.90
30336;DHT22;17142;47.990;7.846;2023-12-20T17:16:51;5.50;99.90
30336;DHT22;17142;47.990;7.846;2023-12-20T17:19:18;5.40;99.90
30336;DHT22;17142;47.990;7.846;2023-12-20T17:21:47;5.40;99.90
30336;DHT22;17142;47.990;7.846;2023-12-20T17:24:13;5.30;99.90
30336;DHT22;17142;47.990;7.846;2023-12-20T17:26:38;5.20;99.90
30336;DHT22;17142;47.990;7.846;2023-12-20T17:29:04;5.20;99.90
30336;DHT22;17142;47.990;7.846;2023-12-20T17:31:30;5.20;99.90
30336;DHT22;17142;47.990;7.846;2023-12-20T17:33:58;5.20;99.90
30336;DHT22;17142;47.990;7.846;2023-12-20T17:36:23;5.20;99.90
30336;DHT22;17142;47.990;7.846;2023-12-20T17:38:49;5.20;99.90
30336;DHT22;17142;47.990;7.846;2023-12-20T17:41:17;5.20;99.90
30336;DHT22;17142;47.990;7.846;2023-12-20T17:43:42;5.20;99.90
30336;DHT22;17142;47.990;7.846;2023-12-20T17:46:08;5.30;99.90
30336;DHT22;17142;47.990;7.846;2023-12-20T17:48:36;5.30;99.90
30336;DHT22;17142;47.990;7.846;2023-12-20T17:51:02;5.40;99.90
30336;DHT22;17142;47.990;7.846;2023-12-20T17:53:27;5.40;99.90
30336;DHT22;17142;47.990;7.846;2023-12-20T17:55:53;5.40;99.90
30336;DHT22;17142;47.990;7.846;2023-12-20T17:58:21;5.40;99.90
30336;DHT22;17142;47.990;7.846;2023-12-20T18:00:52;5.40;99.90
30336;DHT22;17142;47.990;7.846;2023-12-20T18:03:17;5.30;99.90
30336;DHT22;17142;47.990;7.846;2023-12-20T18:05:45;5.40;99.90
30336;DHT22;17142;47.990;7.846;2023-12-20T18:08:11;5.40;99.90
30336;DHT22;17142;47.990;7.846;2023-12-20T18:10:36;5.40;99.90
30336;DHT22;17142;47.990;7.846;2023-12-20T18:13:02;5.40;99.90
30336;DHT22;17142;47.990;7.846;2023-12-20T18:15:28;5.40;99.90
30336;DHT22;17142;47.990;7.846;2023-12-20T18:17:53;5.50;99.90
30336;DHT22;17142;47.990;7.846;2023-12-20T18:20:21;5.60;99.90
30336;DHT22;17142;47.990;7.846;2023-12-20T18:22:47;5.60;99.90
30336;DHT22;17142;47.990;7.846;2023-12-20T18:25:12;5.60;99.90
30336;DHT22;17142;47.990;7.846;2023-12-20T18:27:38;5.60;99.90
30336;DHT22;17142;47.990;7.846;2023-12-20T18:30:04;5.50;99.90
30336;DHT22;17142;47.990;7.846;2023-12-20T18:32:35;5.50;99.90
30336;DHT22;17142;47.990;7.846;2023-12-20T18:35:02;5.50;99.90
30336;DHT22;17142;47.990;7.846;2023-12-20T18:37:30;5.50;99.90
30336;DHT22;17142;47.990;7.846;2023-12-20T18:39:56;5.50;99.90
30336;DHT22;17142;47.990;7.846;2023-12-20T18:42:22;5.50;99.90
30336;DHT22;17142;47.990;7.846;2023-12-20T18:44:47;5.50;99.90
30336;DHT22;17142;47.990;7.846;2023-12-20T18:47:15;5.50;99.90
30336;DHT22;17142;47.990;7.846;2023-12-20T18:49:41;5.60;99.90
30336;DHT22;17142;47.990;7.846;2023-12-20T18:52:07;5.60;99.90
30336;DHT22;17142;47.990;7.846;2023-12-20T18:54:33;5.60;99.90
30336;DHT22;17142;47.990;7.846;2023-12-20T18:56:59;5.60;99.90
30336;DHT22;17142;47.990;7.846;2023-12-20T18:59:26;5.60;99.90
30336;DHT22;17142;47.990;7.846;2023-12-20T19:01:53;5.60;99.90
30336;DHT22;17142;47.990;7.846;2023-12-20T19:04:21;5.70;99.90
30336;DHT22;17142;47.990;7.846;2023-12-20T19:06:49;5.70;99.90
30336;DHT22;17142;47.990;7.846;2023-12-20T19:09:15;5.70;99.90
30336;DHT22;17142;47.990;7.846;2023-12-20T19:11:41;5.70;99.90
30336;DHT22;17142;47.990;7.846;2023-12-20T19:14:07;5.70;99.90
30336;DHT22;17142;47.990;7.846;2023-12-20T19:16:37;5.70;99.90
30336;DHT22;17142;47.990;7.846;2023-12-20T19:19:03;5.70;99.90
30336;DHT22;17142;47.990;7.846;2023-12-20T19:21:28;5.60;99.90
30336;DHT22;17142;47.990;7.846;2023-12-20T19:23:54;5.60;99.90
30336;DHT22;17142;47.990;7.846;2023-12-20T19:26:22;5.50;99.90
30336;DHT22;17142;47.990;7.846;2023-12-20T19:28:47;5.50;99.90
30336;DHT22;17142;47.990;7.846;2023-12-20T19:31:18;5.50;99.90
30336;DHT22;17142;47.990;7.846;2023-12-20T19:33:45;5.50;99.90
30336;DHT22;17142;47.990;7.846;2023-12-20T19:36:15;5.50;99.90
30336;DHT22;17142;47.990;7.846;2023-12-20T19:38:41;5.60;99.90
30336;DHT22;17142;47.990;7.846;2023-12-20T19:41:09;5.60;99.90
30336;DHT22;17142;47.990;7.846;2023-12-20T19:43:38;5.60;99.90
30336;DHT22;17142;47.990;7.846;2023-12-20T19:46:08;5.60;99.90
30336;DHT22;17142;47.990;7.846;2023-12-20T19:48:38;5.70;99.90
30336;DHT22;17142;47.990;7.846;2023-12-20T19:51:04;5.70;99.90
30336;DHT22;17142;47.990;7.846;2023-12-20T19:53:30;5.70;99.90
30336;DHT22;17142;47.990;7.846;2023-12-20T19:55:55;5.70;99.90
30336;DHT22;17142;47.990;7.846;2023-12-20T19:58:23;5.80;99.90
30336;DHT22;17142;47.990;7.846;2023-12-20T20:00:49;5.80;99.90
30336;DHT22;17142;47.990;7.846;2023-12-20T20:03:15;5.80;99.90
30336;DHT22;17142;47.990;7.846;2023-12-20T20:05:43;5.80;99.90
30336;DHT22;17142;47.990;7.846;2023-12-20T20:08:08;5.80;99.90
30336;DHT22;17142;47.990;7.846;2023-12-20T20:10:36;5.80;99.90
30336;DHT22;17142;47.990;7.846;2023-12-20T20:13:02;5.80;99.90
30336;DHT22;17142;47.990;7.846;2023-12-20T20:15:27;5.80;99.90
30336;DHT22;17142;47.990;7.846;2023-12-20T20:17:55;5.80;99.90
30336;DHT22;17142;47.990;7.846;2023-12-20T20:20:21;5.80;99.90
30336;DHT22;17142;47.990;7.846;2023-12-20T20:22:47;5.80;99.90
30336;DHT22;17142;47.990;7.846;2023-12-20T20:25:13;5.80;99.90
30336;DHT22;17142;47.990;7.846;2023-12-20T20:27:38;5.70;99.90
30336;DHT22;17142;47.990;7.846;2023-12-20T20:30:05;5.70;99.90
30336;DHT22;17142;47.990;7.846;2023-12-20T20:32:31;5.70;99.90
30336;DHT22;17142;47.990;7.846;2023-12-20T20:34:56;5.70;99.90
30336;DHT22;17142;47.990;7.846;2023-12-20T20:37:24;5.80;99.90
30336;DHT22;17142;47.990;7.846;2023-12-20T20:39:50;5.80;99.90
30336;DHT22;17142;47.990;7.846;2023-12-20T20:42:15;5.80;99.90
30336;DHT22;17142;47.990;7.846;2023-12-20T20:44:41;5.80;99.90
30336;DHT22;17142;47.990;7.846;2023-12-20T20:47:07;5.70;99.90
30336;DHT22;17142;47.990;7.846;2023-12-20T20:49:32;5.80;99.90
30336;DHT22;17142;47.990;7.846;2023-12-20T20:51:58;5.80;99.90
30336;DHT22;17142;47.990;7.846;2023-12-20T20:54:23;5.90;99.90
30336;DHT22;17142;47.990;7.846;2023-12-20T20:56:49;5.90;99.90
30336;DHT22;17142;47.990;7.846;2023-12-20T20:59:15;5.90;99.90
30336;DHT22;17142;47.990;7.846;2023-12-20T21:01:41;5.90;99.90
30336;DHT22;17142;47.990;7.846;2023-12-20T21:04:10;5.90;99.90
30336;DHT22;17142;47.990;7.846;2023-12-20T21:06:36;5.90;99.90
30336;DHT22;17142;47.990;7.846;2023-12-20T21:09:01;5.90;99.90
30336;DHT22;17142;47.990;7.846;2023-12-20T21:11:27;5.90;99.90
30336;DHT22;17142;47.990;7.846;2023-12-20T21:13:53;5.90;99.90
30336;DHT22;17142;47.990;7.846;2023-12-20T21:16:19;5.90;99.90
30336;DHT22;17142;47.990;7.846;2023-12-20T21:18:44;5.90;99.90
30336;DHT22;17142;47.990;7.846;2023-12-20T21:21:11;5.90;99.90
30336;DHT22;17142;47.990;7.846;2023-12-20T21:23:36;5.90;99.90
30336;DHT22;17142;47.990;7.846;2023-12-20T21:26:02;5.90;99.90
30336;DHT22;17142;47.990;7.846;2023-12-20T21:28:31;5.90;99.90
30336;DHT22;17142;47.990;7.846;2023-12-20T21:31:02;5.90;99.90
30336;DHT22;17142;47.990;7.846;2023-12-20T21:33:27;5.90;99.90
30336;DHT22;17142;47.990;7.846;2023-12-20T21:35:53;5.90;99.90
30336;DHT22;17142;47.990;7.846;2023-12-20T21:38:21;5.90;99.90
30336;DHT22;17142;47.990;7.846;2023-12-20T21:40:46;5.90;99.90
30336;DHT22;17142;47.990;7.846;2023-12-20T21:43:13;5.90;99.90
30336;DHT22;17142;47.990;7.846;2023-12-20T21:45:41;6.00;99.90
30336;DHT22;17142;47.990;7.846;2023-12-20T21:48:08;6.00;99.90
30336;DHT22;17142;47.990;7.846;2023-12-20T21:50:34;6.00;99.90
30336;DHT22;17142;47.990;7.846;2023-12-20T21:53:01;6.00;99.90
30336;DHT22;17142;47.990;7.846;2023-12-20T21:55:27;6.00;99.90
30336;DHT22;17142;47.990;7.846;2023-12-20T21:57:53;6.00;99.90